Osceola, Arkansas
Current Conditions -  °F | °C
As of 5:53 AM on Thursday 29 Jan 2015 (Local Time) from KHKA Reporting Station
Clear Clear  
Wind Chill: 11°   Ceiling: Unl
Heat Index: 11°   Visibility: 10mi
Dew Point:   Wind: 20mph
Humidity: 66%   Direction: 220°SW
Pressure: 29.97"   Gusts: 26mph
Location:  35.71°N, 89.97°W
Report Text: KHKA 291153Z AUTO 22017G23KT 10SM CLR 11/05 A2997 RMK AO2 SLP147 T01110050 10139 20111 55000
Loading
Personal Weather Stations






























Interactive Weather Map New forecast layout! Learn more

10-Day Weather Forecast

Advertisements
Track Severe Weather on mobile